Time;durP1;ratioP1;P1;durP2;ratioP2;P2;SDS_P1;SDS_P2;PMS_P1;PMS_P2;Temp;Humidity;BMP_temperature;BMP_pressure;BME280_temperature;BME280_humidity;BME280_pressure;Samples;Min_cycle;Max_cycle;Signal;HPM_P1;HPM_P2
2024/01/16 00:02:02;;;;;;;7.50;3.10;;;;;;;;;;5029266;28;20140;-69
2024/01/16 00:04:29;;;;;;;3.97;2.60;;;;;;;;;;5029968;28;20033;-70
2024/01/16 00:06:55;;;;;;;5.37;2.83;;;;;;;;;;5012510;28;20059;-70
2024/01/16 00:09:20;;;;;;;4.40;2.67;;;;;;;;;;5029891;28;20033;-70
2024/01/16 00:11:46;;;;;;;4.63;2.70;;;;;;;;;;5028572;28;20108;-69
2024/01/16 00:14:11;;;;;;;4.40;2.60;;;;;;;;;;5028527;28;20040;-69
2024/01/16 00:16:47;;;;;;;5.93;3.50;;;;;;;;;;5039675;28;20123;-69
2024/01/16 00:19:13;;;;;;;5.63;2.87;;;;;;;;;;5048740;28;20020;-70
2024/01/16 00:21:40;;;;;;;5.37;2.70;;;;;;;;;;5049969;28;20393;-68
2024/01/16 00:24:06;;;;;;;8.83;3.23;;;;;;;;;;5049073;28;20033;-69
2024/01/16 00:26:32;;;;;;;4.90;2.50;;;;;;;;;;5048138;28;20033;-68
2024/01/16 00:28:57;;;;;;;4.90;2.23;;;;;;;;;;5049640;28;20086;-70
2024/01/16 00:31:23;;;;;;;2.33;1.70;;;;;;;;;;5032940;28;20065;-71
2024/01/16 00:33:49;;;;;;;7.20;2.40;;;;;;;;;;5048010;28;20369;-69
2024/01/16 00:36:15;;;;;;;3.07;2.10;;;;;;;;;;5049959;28;20469;-71
2024/01/16 00:38:41;;;;;;;6.47;2.33;;;;;;;;;;5049203;28;20035;-70
2024/01/16 00:41:06;;;;;;;6.60;2.03;;;;;;;;;;5040406;28;20056;-68
2024/01/16 00:43:35;;;;;;;4.40;1.83;;;;;;;;;;5029358;28;20496;-70
2024/01/16 00:46:01;;;;;;;2.80;2.10;;;;;;;;;;5033592;28;20020;-69
2024/01/16 00:48:26;;;;;;;3.90;1.90;;;;;;;;;;5047707;28;20032;-70
2024/01/16 00:50:52;;;;;;;4.63;1.80;;;;;;;;;;5047673;28;20024;-70
2024/01/16 00:53:17;;;;;;;3.83;1.80;;;;;;;;;;5048785;28;20040;-69
2024/01/16 00:55:43;;;;;;;3.30;1.70;;;;;;;;;;5047564;28;20131;-70
2024/01/16 00:58:08;;;;;;;2.17;1.73;;;;;;;;;;5049207;28;20445;-72
2024/01/16 01:00:35;;;;;;;7.50;2.03;;;;;;;;;;5048049;28;20162;-73
2024/01/16 01:03:00;;;;;;;2.73;1.47;;;;;;;;;;5035353;28;20116;-70
2024/01/16 01:05:28;;;;;;;4.17;2.20;;;;;;;;;;5029301;28;20164;-72
2024/01/16 01:07:57;;;;;;;3.27;1.90;;;;;;;;;;5027916;28;20026;-69
2024/01/16 01:10:23;;;;;;;4.03;2.13;;;;;;;;;;5027501;28;20032;-70
2024/01/16 01:12:49;;;;;;;5.60;2.13;;;;;;;;;;5027709;28;20022;-71
2024/01/16 01:15:15;;;;;;;2.73;1.40;;;;;;;;;;5027602;28;20370;-68
2024/01/16 01:17:41;;;;;;;3.50;1.90;;;;;;;;;;5027797;28;20057;-71
2024/01/16 01:20:08;;;;;;;5.23;1.80;;;;;;;;;;5028875;28;20041;-68
2024/01/16 01:22:34;;;;;;;3.57;1.80;;;;;;;;;;5027935;28;20033;-69
2024/01/16 01:25:00;;;;;;;6.10;2.10;;;;;;;;;;5029845;28;20075;-70
2024/01/16 01:27:25;;;;;;;3.07;1.60;;;;;;;;;;5038187;28;20375;-69
2024/01/16 01:29:51;;;;;;;3.13;1.80;;;;;;;;;;5049449;28;20029;-68
2024/01/16 01:32:16;;;;;;;4.97;1.87;;;;;;;;;;5048577;28;20043;-70
2024/01/16 01:34:42;;;;;;;3.77;2.17;;;;;;;;;;5038012;28;20069;-69
2024/01/16 01:37:08;;;;;;;3.77;2.03;;;;;;;;;;5028831;28;20029;-69
2024/01/16 01:39:33;;;;;;;3.07;1.77;;;;;;;;;;5028704;28;20508;-69
2024/01/16 01:41:59;;;;;;;4.37;2.10;;;;;;;;;;5028649;28;20059;-69
2024/01/16 01:44:25;;;;;;;3.30;2.30;;;;;;;;;;5029699;28;20104;-69
2024/01/16 01:46:51;;;;;;;3.53;1.90;;;;;;;;;;5031084;28;20120;-69
2024/01/16 01:49:17;;;;;;;2.90;1.57;;;;;;;;;;5030766;28;20030;-69
2024/01/16 01:51:43;;;;;;;3.43;1.90;;;;;;;;;;5032740;28;20040;-71
2024/01/16 01:54:10;;;;;;;3.27;1.80;;;;;;;;;;5031262;28;20079;-69
2024/01/16 01:56:36;;;;;;;8.83;2.00;;;;;;;;;;5030822;28;20042;-69
2024/01/16 01:59:02;;;;;;;2.23;1.47;;;;;;;;;;5031071;28;20029;-70
2024/01/16 02:01:29;;;;;;;3.37;1.80;;;;;;;;;;5032584;28;20029;-69
2024/01/16 02:03:56;;;;;;;1.93;1.63;;;;;;;;;;5030757;28;20032;-70
2024/01/16 02:06:22;;;;;;;3.90;1.43;;;;;;;;;;5034707;28;20105;-70
2024/01/16 02:08:49;;;;;;;4.50;1.73;;;;;;;;;;5052568;28;20493;-69
2024/01/16 02:11:15;;;;;;;4.47;1.87;;;;;;;;;;5050776;28;20112;-72
2024/01/16 02:13:42;;;;;;;5.33;1.63;;;;;;;;;;5052130;28;20033;-72
2024/01/16 02:16:20;;;;;;;3.50;1.90;;;;;;;;;;5051207;28;20089;-70
2024/01/16 02:18:46;;;;;;;3.70;1.87;;;;;;;;;;5050528;28;20021;-69
2024/01/16 02:21:16;;;;;;;2.53;1.53;;;;;;;;;;5051540;28;20040;-70
2024/01/16 02:23:42;;;;;;;1.57;1.47;;;;;;;;;;5048355;28;20525;-70
2024/01/16 02:26:08;;;;;;;6.50;2.20;;;;;;;;;;5050595;28;20035;-69
2024/01/16 02:28:33;;;;;;;4.30;1.93;;;;;;;;;;5051600;28;20025;-69
2024/01/16 02:30:59;;;;;;;1.90;1.67;;;;;;;;;;5051784;28;20091;-70
2024/01/16 02:33:25;;;;;;;4.50;1.80;;;;;;;;;;5050361;28;20036;-69
2024/01/16 02:35:51;;;;;;;3.43;1.90;;;;;;;;;;5051977;28;20057;-69
2024/01/16 02:38:17;;;;;;;5.00;2.17;;;;;;;;;;5050398;28;20121;-70
2024/01/16 02:40:42;;;;;;;2.20;1.70;;;;;;;;;;5034404;28;20037;-71
2024/01/16 02:43:08;;;;;;;2.57;1.40;;;;;;;;;;5031735;28;20033;-67
2024/01/16 02:45:34;;;;;;;1.67;1.57;;;;;;;;;;5032608;28;20036;-72
2024/01/16 02:48:00;;;;;;;2.87;1.80;;;;;;;;;;5031755;28;20026;-69
2024/01/16 02:50:25;;;;;;;2.00;1.33;;;;;;;;;;5030044;28;20021;-69
2024/01/16 02:52:51;;;;;;;4.43;1.87;;;;;;;;;;5030228;28;20137;-69
2024/01/16 02:55:16;;;;;;;2.53;1.60;;;;;;;;;;5035497;28;20435;-69
2024/01/16 02:57:42;;;;;;;2.73;1.80;;;;;;;;;;5039567;28;20049;-68
2024/01/16 03:00:08;;;;;;;2.63;1.53;;;;;;;;;;5050223;28;20117;-69
2024/01/16 03:02:34;;;;;;;2.03;1.30;;;;;;;;;;5051124;28;20538;-69
2024/01/16 03:04:59;;;;;;;3.70;1.67;;;;;;;;;;5051280;28;20025;-69
2024/01/16 03:07:25;;;;;;;9.30;1.80;;;;;;;;;;5049444;28;20029;-70
2024/01/16 03:09:51;;;;;;;2.37;1.23;;;;;;;;;;5049714;28;20533;-70
2024/01/16 03:12:18;;;;;;;1.80;1.43;;;;;;;;;;5037973;28;20025;-70
2024/01/16 03:14:43;;;;;;;3.10;1.70;;;;;;;;;;5031895;28;20040;-71
2024/01/16 03:17:09;;;;;;;2.93;1.67;;;;;;;;;;5038179;28;20025;-69
2024/01/16 03:19:34;;;;;;;3.33;1.93;;;;;;;;;;5039736;28;20029;-68
2024/01/16 03:22:01;;;;;;;3.30;1.67;;;;;;;;;;5031812;28;20437;-70
2024/01/16 03:24:26;;;;;;;1.73;1.47;;;;;;;;;;5030854;28;20051;-70
2024/01/16 03:26:52;;;;;;;2.53;1.57;;;;;;;;;;5031028;28;20468;-69
2024/01/16 03:29:17;;;;;;;5.57;1.37;;;;;;;;;;5049349;28;20033;-70
2024/01/16 03:31:43;;;;;;;2.37;1.83;;;;;;;;;;5049160;28;20021;-69
2024/01/16 03:34:10;;;;;;;4.90;1.50;;;;;;;;;;5050608;28;20032;-69
2024/01/16 03:36:36;;;;;;;2.37;1.43;;;;;;;;;;5049026;28;20029;-68
2024/01/16 03:39:02;;;;;;;1.70;1.60;;;;;;;;;;5049367;28;20043;-69
2024/01/16 03:41:27;;;;;;;2.33;1.60;;;;;;;;;;5040970;28;20029;-69
2024/01/16 03:43:56;;;;;;;6.77;1.80;;;;;;;;;;5034205;28;20029;-69
2024/01/16 03:46:22;;;;;;;2.00;1.80;;;;;;;;;;5029224;28;20111;-70
2024/01/16 03:48:49;;;;;;;2.73;1.60;;;;;;;;;;5030424;28;20034;-69
2024/01/16 03:51:19;;;;;;;1.90;1.47;;;;;;;;;;5029227;28;20049;-67
2024/01/16 03:53:45;;;;;;;1.73;1.27;;;;;;;;;;5029451;28;20288;-70
2024/01/16 03:56:11;;;;;;;2.33;1.77;;;;;;;;;;5030489;28;20505;-70
2024/01/16 03:58:38;;;;;;;2.50;1.93;;;;;;;;;;5012522;28;20068;-69
2024/01/16 04:01:03;;;;;;;3.97;2.40;;;;;;;;;;5046126;28;20485;-70
2024/01/16 04:03:29;;;;;;;3.00;1.83;;;;;;;;;;5049882;28;20063;-71
2024/01/16 04:05:54;;;;;;;1.73;1.60;;;;;;;;;;5050506;28;20020;-70
2024/01/16 04:08:20;;;;;;;2.00;1.80;;;;;;;;;;5047995;28;20481;-68
2024/01/16 04:10:45;;;;;;;2.80;1.50;;;;;;;;;;5048743;28;20500;-69
2024/01/16 04:13:11;;;;;;;3.50;1.57;;;;;;;;;;5048553;28;20028;-70
2024/01/16 04:15:40;;;;;;;2.00;1.80;;;;;;;;;;5047779;28;20021;-69
2024/01/16 04:18:06;;;;;;;2.37;1.67;;;;;;;;;;5048095;28;20021;-70
2024/01/16 04:20:32;;;;;;;3.03;1.60;;;;;;;;;;5049124;28;20044;-69
2024/01/16 04:22:57;;;;;;;1.70;1.60;;;;;;;;;;5050187;28;20021;-69
2024/01/16 04:25:23;;;;;;;2.60;1.90;;;;;;;;;;5049620;28;20108;-70
2024/01/16 04:27:49;;;;;;;3.63;1.70;;;;;;;;;;5049912;28;20021;-70
2024/01/16 04:30:15;;;;;;;2.47;2.23;;;;;;;;;;5049759;28;20051;-70
2024/01/16 04:32:41;;;;;;;5.50;1.80;;;;;;;;;;5036668;28;20167;-69
2024/01/16 04:35:07;;;;;;;3.50;1.73;;;;;;;;;;5028134;28;20102;-69
2024/01/16 04:37:32;;;;;;;2.63;2.23;;;;;;;;;;5027799;28;20086;-69
2024/01/16 04:39:59;;;;;;;3.30;2.00;;;;;;;;;;5028241;28;20083;-70
2024/01/16 04:42:25;;;;;;;7.97;2.57;;;;;;;;;;5027911;28;20363;-69
2024/01/16 04:44:51;;;;;;;3.63;1.90;;;;;;;;;;5029528;28;20484;-71
2024/01/16 04:47:16;;;;;;;1.93;1.67;;;;;;;;;;5029684;28;20450;-70
2024/01/16 04:49:43;;;;;;;4.17;2.53;;;;;;;;;;5029420;28;20040;-69
2024/01/16 04:52:09;;;;;;;4.13;1.97;;;;;;;;;;5028373;28;20216;-70
2024/01/16 04:54:35;;;;;;;4.47;2.40;;;;;;;;;;5028292;28;20108;-71
2024/01/16 04:57:00;;;;;;;2.43;2.00;;;;;;;;;;5027988;28;20152;-70
2024/01/16 04:59:26;;;;;;;3.87;2.13;;;;;;;;;;5029183;28;20039;-69
2024/01/16 05:01:52;;;;;;;6.93;2.60;;;;;;;;;;5027942;28;20036;-69
2024/01/16 05:04:17;;;;;;;3.77;1.83;;;;;;;;;;5029240;28;20474;-70
2024/01/16 05:06:43;;;;;;;2.57;1.70;;;;;;;;;;5029041;28;20022;-69
2024/01/16 05:09:12;;;;;;;4.03;1.87;;;;;;;;;;5028018;28;20057;-72
2024/01/16 05:11:37;;;;;;;3.13;1.70;;;;;;;;;;5028139;28;20029;-71
2024/01/16 05:14:04;;;;;;;3.63;1.93;;;;;;;;;;5028973;28;20124;-70
2024/01/16 05:16:30;;;;;;;2.13;1.90;;;;;;;;;;5027566;28;20077;-70
2024/01/16 05:18:56;;;;;;;2.23;1.60;;;;;;;;;;5029644;28;20092;-69
2024/01/16 05:21:21;;;;;;;2.97;2.40;;;;;;;;;;5031245;28;20404;-70
2024/01/16 05:23:47;;;;;;;2.67;1.83;;;;;;;;;;5033513;28;20363;-69
2024/01/16 05:26:12;;;;;;;5.10;2.30;;;;;;;;;;5033380;28;20072;-69
2024/01/16 05:28:38;;;;;;;2.43;1.63;;;;;;;;;;5033133;28;20542;-69
2024/01/16 05:31:04;;;;;;;6.13;1.80;;;;;;;;;;5032871;28;20022;-70
2024/01/16 05:33:30;;;;;;;2.10;1.87;;;;;;;;;;5031393;28;20472;-70
2024/01/16 05:35:57;;;;;;;3.20;1.80;;;;;;;;;;5031471;28;20098;-71
2024/01/16 05:38:23;;;;;;;2.70;2.20;;;;;;;;;;5033026;28;20067;-69
2024/01/16 05:40:48;;;;;;;8.40;2.40;;;;;;;;;;5031670;28;20110;-69
2024/01/16 05:43:14;;;;;;;3.77;2.47;;;;;;;;;;5015374;28;20026;-70
2024/01/16 05:45:40;;;;;;;3.67;2.07;;;;;;;;;;5031180;28;20033;-71
2024/01/16 05:48:08;;;;;;;3.10;1.80;;;;;;;;;;5031832;28;20055;-69
2024/01/16 05:50:34;;;;;;;3.00;2.03;;;;;;;;;;5032429;28;20037;-69
2024/01/16 05:53:00;;;;;;;2.73;2.03;;;;;;;;;;5039806;28;20028;-69
2024/01/16 05:55:25;;;;;;;7.13;2.80;;;;;;;;;;5050663;28;20017;-70
2024/01/16 05:57:51;;;;;;;2.87;2.30;;;;;;;;;;5051073;28;20084;-70
2024/01/16 06:00:18;;;;;;;9.53;2.23;;;;;;;;;;5050801;28;20384;-71
2024/01/16 06:02:44;;;;;;;3.63;2.00;;;;;;;;;;5052067;28;20032;-70
2024/01/16 06:05:09;;;;;;;2.30;2.10;;;;;;;;;;5052282;28;20075;-70
2024/01/16 06:07:35;;;;;;;4.47;2.10;;;;;;;;;;5052142;28;20439;-69
2024/01/16 06:10:01;;;;;;;7.07;2.50;;;;;;;;;;5050215;28;20029;-69
2024/01/16 06:12:27;;;;;;;7.80;2.30;;;;;;;;;;5033105;28;20026;-72
2024/01/16 06:14:53;;;;;;;2.87;2.03;;;;;;;;;;5017669;28;20025;-71
2024/01/16 06:17:18;;;;;;;2.30;2.13;;;;;;;;;;5010457;28;20440;-71
2024/01/16 06:19:46;;;;;;;7.60;2.50;;;;;;;;;;5028108;28;20432;-69
2024/01/16 06:22:12;;;;;;;6.53;2.20;;;;;;;;;;5026667;28;20029;-69
2024/01/16 06:24:38;;;;;;;5.37;2.43;;;;;;;;;;5029796;28;20032;-70
2024/01/16 06:27:07;;;;;;;3.10;2.40;;;;;;;;;;5025962;28;20323;-70
2024/01/16 06:29:32;;;;;;;2.60;1.80;;;;;;;;;;5034570;28;20088;-70
2024/01/16 06:31:59;;;;;;;3.67;2.30;;;;;;;;;;5025489;28;20168;-71
2024/01/16 06:34:24;;;;;;;3.60;2.57;;;;;;;;;;5032752;28;20112;-68
2024/01/16 06:36:50;;;;;;;4.60;1.93;;;;;;;;;;5031409;28;20105;-71
2024/01/16 06:39:15;;;;;;;3.40;2.27;;;;;;;;;;5022201;28;20036;-70
2024/01/16 06:41:41;;;;;;;2.23;2.03;;;;;;;;;;5026372;28;20025;-70
2024/01/16 06:44:07;;;;;;;4.33;2.27;;;;;;;;;;5029091;28;20115;-68
2024/01/16 06:46:33;;;;;;;2.33;1.90;;;;;;;;;;5030187;28;20451;-74
2024/01/16 06:48:58;;;;;;;3.67;2.03;;;;;;;;;;5030440;28;20358;-69
2024/01/16 06:51:24;;;;;;;2.80;2.37;;;;;;;;;;5019427;28;20504;-71
2024/01/16 06:53:49;;;;;;;4.17;2.17;;;;;;;;;;5019345;28;20458;-69
2024/01/16 06:56:15;;;;;;;3.23;2.03;;;;;;;;;;5023872;28;20061;-70
2024/01/16 06:58:40;;;;;;;2.70;1.90;;;;;;;;;;5021529;28;20037;-71
2024/01/16 07:01:08;;;;;;;5.83;2.43;;;;;;;;;;5025938;28;20423;-69
2024/01/16 07:03:34;;;;;;;4.17;2.40;;;;;;;;;;5033211;28;20556;-70
2024/01/16 07:06:00;;;;;;;4.37;2.43;;;;;;;;;;5012487;28;20033;-70
2024/01/16 07:08:26;;;;;;;2.33;1.87;;;;;;;;;;5036005;28;20040;-69
2024/01/16 07:10:52;;;;;;;3.00;2.03;;;;;;;;;;5021183;28;20569;-68
2024/01/16 07:13:19;;;;;;;6.23;2.37;;;;;;;;;;5030817;28;20091;-70
2024/01/16 07:15:44;;;;;;;7.07;2.30;;;;;;;;;;5007763;28;20025;-70
2024/01/16 07:18:10;;;;;;;5.67;1.80;;;;;;;;;;5027897;28;20033;-71
2024/01/16 07:20:35;;;;;;;4.53;2.60;;;;;;;;;;5027124;28;20025;-71
2024/01/16 07:23:01;;;;;;;3.43;2.23;;;;;;;;;;5021300;28;20051;-70
2024/01/16 07:25:27;;;;;;;2.07;1.60;;;;;;;;;;5032408;28;20029;-72
2024/01/16 07:27:54;;;;;;;3.57;2.40;;;;;;;;;;5038174;28;20546;-70
2024/01/16 07:30:20;;;;;;;2.93;1.93;;;;;;;;;;5018872;28;20033;-72
2024/01/16 07:32:46;;;;;;;6.10;2.00;;;;;;;;;;5031105;28;20150;-70
2024/01/16 07:35:11;;;;;;;3.23;1.70;;;;;;;;;;5021384;28;20056;-70
2024/01/16 07:37:37;;;;;;;4.20;2.50;;;;;;;;;;5035750;28;20044;-71
2024/01/16 07:40:05;;;;;;;3.60;1.90;;;;;;;;;;5020240;28;20024;-70
2024/01/16 07:42:34;;;;;;;3.07;1.73;;;;;;;;;;5025588;28;20021;-71
2024/01/16 07:45:04;;;;;;;5.20;2.27;;;;;;;;;;5041527;28;20041;-70
2024/01/16 07:47:31;;;;;;;4.30;2.03;;;;;;;;;;5025223;28;20047;-72
2024/01/16 07:49:57;;;;;;;4.77;2.43;;;;;;;;;;5029072;28;20623;-71
2024/01/16 07:52:22;;;;;;;5.90;2.30;;;;;;;;;;5012638;28;20075;-70
2024/01/16 07:54:48;;;;;;;5.60;2.50;;;;;;;;;;5026202;28;20412;-71
2024/01/16 07:57:14;;;;;;;5.17;2.07;;;;;;;;;;5011119;28;20054;-71
2024/01/16 07:59:40;;;;;;;4.53;1.70;;;;;;;;;;5019104;28;20024;-71
2024/01/16 08:02:08;;;;;;;2.63;2.23;;;;;;;;;;5035266;28;20829;-71
2024/01/16 08:04:35;;;;;;;3.17;2.03;;;;;;;;;;5023886;28;20085;-73
2024/01/16 08:07:00;;;;;;;6.67;2.20;;;;;;;;;;5018628;28;20033;-68
2024/01/16 08:09:26;;;;;;;1.97;1.77;;;;;;;;;;5003595;28;20119;-72
2024/01/16 08:11:54;;;;;;;4.77;1.80;;;;;;;;;;5023443;28;20043;-72
2024/01/16 08:14:20;;;;;;;9.10;1.90;;;;;;;;;;5034276;28;20030;-74
2024/01/16 08:16:46;;;;;;;4.37;1.83;;;;;;;;;;5019499;28;20036;-71
2024/01/16 08:19:15;;;;;;;2.23;1.30;;;;;;;;;;5025598;28;20025;-69
2024/01/16 08:21:41;;;;;;;5.53;2.00;;;;;;;;;;5021737;28;20057;-68
2024/01/16 08:24:07;;;;;;;3.70;1.07;;;;;;;;;;5026192;28;20541;-70
2024/01/16 08:26:32;;;;;;;7.67;2.00;;;;;;;;;;5027993;28;20033;-72
2024/01/16 08:28:58;;;;;;;2.23;1.53;;;;;;;;;;5026707;28;20033;-70
2024/01/16 08:31:23;;;;;;;11.07;6.17;;;;;;;;;;5030780;28;20044;-72
2024/01/16 08:33:49;;;;;;;8.00;4.33;;;;;;;;;;5031693;28;20033;-71
2024/01/16 08:36:15;;;;;;;5.07;1.73;;;;;;;;;;5004310;28;20036;-69
2024/01/16 08:38:40;;;;;;;4.87;2.47;;;;;;;;;;5020924;28;20348;-71
2024/01/16 08:41:06;;;;;;;2.13;1.67;;;;;;;;;;5005496;28;20044;-72
2024/01/16 08:43:38;;;;;;;5.93;2.17;;;;;;;;;;5022918;28;20029;-73
2024/01/16 08:46:13;;;;;;;;;;;;;;;;;;5027841;28;20033;-73
2024/01/16 08:48:41;;;;;;;2.63;1.70;;;;;;;;;;5031473;28;19952;-72
2024/01/16 08:51:16;;;;;;;2.33;2.00;;;;;;;;;;5025815;28;20018;-72
2024/01/16 08:53:44;;;;;;;6.37;1.90;;;;;;;;;;5001706;28;20084;-72
2024/01/16 08:56:12;;;;;;;2.83;1.80;;;;;;;;;;5037062;28;20145;-72
2024/01/16 08:58:43;;;;;;;3.87;1.80;;;;;;;;;;5041763;28;20404;-74
2024/01/16 09:01:10;;;;;;;9.60;2.03;;;;;;;;;;5019529;28;20560;-75
2024/01/16 09:03:38;;;;;;;4.27;2.00;;;;;;;;;;5024420;28;20021;-72
2024/01/16 09:06:05;;;;;;;9.00;1.70;;;;;;;;;;5030947;28;20061;-73
2024/01/16 09:08:35;;;;;;;4.60;2.07;;;;;;;;;;5012027;28;20029;-74
2024/01/16 09:11:01;;;;;;;6.87;1.57;;;;;;;;;;5035922;28;20153;-70
2024/01/16 09:13:30;;;;;;;2.10;1.37;;;;;;;;;;5034681;28;20706;-68
2024/01/16 09:16:00;;;;;;;3.05;1.80;;;;;;;;;;5023740;28;20600;-70
2024/01/16 09:18:26;;;;;;;3.53;1.33;;;;;;;;;;5022301;28;20046;-70
2024/01/16 09:20:52;;;;;;;3.50;1.57;;;;;;;;;;5032214;28;20711;-70
2024/01/16 09:23:21;;;;;;;2.50;1.50;;;;;;;;;;5019169;28;20045;-74
2024/01/16 09:25:47;;;;;;;2.93;1.60;;;;;;;;;;5010022;28;20038;-73
2024/01/16 09:28:14;;;;;;;4.50;2.07;;;;;;;;;;5033646;28;20036;-71
2024/01/16 09:30:42;;;;;;;3.87;1.67;;;;;;;;;;5022019;28;20041;-75
2024/01/16 09:33:10;;;;;;;7.97;1.60;;;;;;;;;;5028115;28;20365;-70
2024/01/16 09:35:36;;;;;;;5.03;1.67;;;;;;;;;;5025291;28;20033;-71
2024/01/16 09:38:08;;;;;;;4.77;1.70;;;;;;;;;;5021555;28;20116;-72
2024/01/16 09:40:36;;;;;;;2.92;1.75;;;;;;;;;;5032156;28;20072;-73
2024/01/16 09:43:08;;;;;;;3.47;2.10;;;;;;;;;;5028906;28;20067;-74
2024/01/16 09:45:38;;;;;;;5.07;1.90;;;;;;;;;;5031561;28;20033;-71
2024/01/16 09:48:14;;;;;;;7.17;1.93;;;;;;;;;;5035173;28;20044;-75
2024/01/16 09:50:43;;;;;;;3.53;2.27;;;;;;;;;;5029176;28;20065;-71
2024/01/16 09:53:12;;;;;;;4.73;2.47;;;;;;;;;;5029852;28;20551;-76
2024/01/16 09:55:42;;;;;;;3.70;1.93;;;;;;;;;;5028203;28;20029;-72
2024/01/16 09:58:13;;;;;;;5.53;1.43;;;;;;;;;;5027822;28;20069;-73
2024/01/16 10:00:40;;;;;;;6.07;2.17;;;;;;;;;;5021325;28;20033;-70
2024/01/16 10:03:06;;;;;;;2.93;2.07;;;;;;;;;;5028302;28;20270;-71
2024/01/16 10:05:33;;;;;;;6.63;2.03;;;;;;;;;;5028246;28;20043;-70
2024/01/16 10:08:01;;;;;;;2.93;1.90;;;;;;;;;;5026990;28;20064;-72
2024/01/16 10:10:28;;;;;;;9.83;1.80;;;;;;;;;;5024936;28;20030;-72
2024/01/16 10:13:00;;;;;;;4.17;1.80;;;;;;;;;;5034907;28;20029;-72
2024/01/16 10:15:32;;;;;;;2.70;1.73;;;;;;;;;;5021471;28;20033;-73
2024/01/16 10:18:21;;;;;;;;;;;;;;;;;;5038686;28;20025;-71
2024/01/16 10:21:00;;;;;;;;;;;;;;;;;;;;;
2024/01/16 10:23:36;;;;;;;3.83;1.90;;;;;;;;;;5025849;28;20067;-72
2024/01/16 10:26:17;;;;;;;3.40;2.07;;;;;;;;;;5030407;28;20128;-75
2024/01/16 10:28:55;;;;;;;3.10;2.03;;;;;;;;;;5040588;28;20434;-74
2024/01/16 10:31:42;;;;;;;2.70;1.93;;;;;;;;;;5035156;28;20030;-74
2024/01/16 10:34:43;;;;;;;8.57;2.00;;;;;;;;;;5022413;28;20041;-74
2024/01/16 10:37:09;;;;;;;4.33;1.80;;;;;;;;;;5042909;28;20073;-72
2024/01/16 10:39:41;;;;;;;3.43;1.80;;;;;;;;;;5009519;28;20029;-73
2024/01/16 10:42:07;;;;;;;4.72;2.00;;;;;;;;;;5022668;28;20029;-70
2024/01/16 10:44:34;;;;;;;7.47;1.90;;;;;;;;;;5020140;28;20029;-71
2024/01/16 10:47:21;;;;;;;2.37;1.50;;;;;;;;;;5005278;28;20033;-71
2024/01/16 10:49:51;;;;;;;9.77;2.47;;;;;;;;;;5019116;28;20058;-72
2024/01/16 10:52:28;;;;;;;6.80;2.00;;;;;;;;;;5013287;28;20033;-74
2024/01/16 10:55:04;;;;;;;4.90;2.27;;;;;;;;;;5013251;28;20041;-71
2024/01/16 10:57:40;;;;;;;6.30;2.03;;;;;;;;;;5027778;28;20053;-74
2024/01/16 11:00:12;;;;;;;2.97;1.60;;;;;;;;;;5039371;28;20033;-71
2024/01/16 11:02:48;;;;;;;2.73;1.80;;;;;;;;;;5031933;28;20037;-71
2024/01/16 11:05:18;;;;;;;4.57;2.17;;;;;;;;;;5035702;28;20117;-71
2024/01/16 11:07:46;;;;;;;5.33;1.80;;;;;;;;;;5022901;28;20033;-72
2024/01/16 11:10:13;;;;;;;3.60;1.43;;;;;;;;;;5030668;28;20059;-72
2024/01/16 11:12:52;;;;;;;4.40;1.83;;;;;;;;;;5027498;28;20112;-74
2024/01/16 11:15:20;;;;;;;4.13;1.80;;;;;;;;;;5024094;28;20026;-72
2024/01/16 11:17:47;;;;;;;3.20;1.70;;;;;;;;;;5033954;28;20082;-72
2024/01/16 11:20:17;;;;;;;11.20;2.30;;;;;;;;;;5029469;28;20051;-74
2024/01/16 11:22:51;;;;;;;11.20;4.63;;;;;;;;;;5034096;28;20030;-73
2024/01/16 11:25:20;;;;;;;3.33;1.67;;;;;;;;;;5011381;28;20034;-73
2024/01/16 11:27:52;;;;;;;1.73;1.37;;;;;;;;;;5033242;28;20100;-71
2024/01/16 11:30:35;;;;;;;4.75;1.92;;;;;;;;;;5030269;28;20452;-73
2024/01/16 11:33:04;;;;;;;5.67;1.67;;;;;;;;;;5040885;28;20512;-68
2024/01/16 11:36:01;;;;;;;3.70;1.80;;;;;;;;;;5010162;28;20095;-71
2024/01/16 11:38:30;;;;;;;6.70;3.57;;;;;;;;;;5034973;28;20036;-68
2024/01/16 11:41:13;;;;;;;4.40;1.70;;;;;;;;;;5037035;28;20021;-75
2024/01/16 11:43:56;;;;;;;3.37;1.80;;;;;;;;;;5018484;28;20029;-71
2024/01/16 11:47:00;;;;;;;6.40;2.07;;;;;;;;;;5025493;28;20033;-72
2024/01/16 11:49:26;;;;;;;5.97;1.87;;;;;;;;;;5026184;28;20049;-68
2024/01/16 11:52:06;;;;;;;1.93;1.83;;;;;;;;;;5025167;28;20037;-71
2024/01/16 11:54:37;;;;;;;6.40;2.13;;;;;;;;;;5035987;28;20425;-71
2024/01/16 11:57:25;;;;;;;8.00;2.50;;;;;;;;;;5023327;28;20062;-72
2024/01/16 12:00:18;;;;;;;5.70;2.00;;;;;;;;;;5024005;28;20040;-73
2024/01/16 12:02:56;;;;;;;3.17;1.80;;;;;;;;;;5019246;28;20140;-70
2024/01/16 12:05:24;;;;;;;3.07;2.00;;;;;;;;;;5021641;28;20040;-72
2024/01/16 12:08:01;;;;;;;10.23;2.50;;;;;;;;;;5033501;28;20049;-70
2024/01/16 12:10:38;;;;;;;6.47;2.23;;;;;;;;;;5019733;28;20499;-70
2024/01/16 12:13:11;;;;;;;4.43;1.70;;;;;;;;;;5030922;28;20030;-70
2024/01/16 12:15:43;;;;;;;4.97;2.37;;;;;;;;;;5026457;28;20373;-70
2024/01/16 12:18:19;;;;;;;6.17;1.67;;;;;;;;;;5034806;28;20044;-72
2024/01/16 12:20:49;;;;;;;5.15;2.65;;;;;;;;;;5022759;28;20326;-70
2024/01/16 12:23:22;;;;;;;13.20;2.83;;;;;;;;;;5014971;28;20040;-71
2024/01/16 12:26:01;;;;;;;8.77;2.27;;;;;;;;;;5020200;28;20033;-72
2024/01/16 12:28:28;;;;;;;4.33;2.10;;;;;;;;;;5025485;28;20025;-71
2024/01/16 12:31:06;;;;;;;3.30;1.80;;;;;;;;;;5025387;28;20029;-71
2024/01/16 12:33:36;;;;;;;2.33;1.63;;;;;;;;;;5024715;28;20025;-70
2024/01/16 12:36:07;;;;;;;3.23;1.77;;;;;;;;;;5021411;28;20025;-69
2024/01/16 12:38:42;;;;;;;2.53;1.63;;;;;;;;;;5027831;28;20037;-71
2024/01/16 12:41:10;;;;;;;4.40;2.50;;;;;;;;;;5032985;28;20462;-70
2024/01/16 12:43:55;;;;;;;;;;;;;;;;;;;;;
2024/01/16 12:46:35;;;;;;;3.10;2.07;;;;;;;;;;5031344;28;20183;-69
2024/01/16 12:49:18;;;;;;;2.03;1.60;;;;;;;;;;5024787;28;20548;-70
2024/01/16 12:52:25;;;;;;;3.53;1.93;;;;;;;;;;5023240;28;20028;-69
2024/01/16 12:55:03;;;;;;;2.03;1.50;;;;;;;;;;5034613;28;20494;-70
2024/01/16 12:57:47;;;;;;;;;;;;;;;;;;;;;
2024/01/16 13:00:44;;;;;;;5.77;2.20;;;;;;;;;;5012645;28;20037;-69
2024/01/16 13:03:35;;;;;;;2.93;1.97;;;;;;;;;;5009455;28;20575;-69
2024/01/16 13:06:08;;;;;;;3.37;1.93;;;;;;;;;;5000638;28;20051;-71
2024/01/16 13:08:38;;;;;;;3.13;1.87;;;;;;;;;;5027170;28;20127;-70
2024/01/16 13:11:22;;;;;;;7.07;2.30;;;;;;;;;;5023350;28;20056;-70
2024/01/16 13:14:06;;;;;;;4.63;1.67;;;;;;;;;;5023425;28;20545;-72
2024/01/16 13:16:35;;;;;;;2.47;1.90;;;;;;;;;;5015028;28;20034;-69
2024/01/16 13:19:04;;;;;;;5.87;3.00;;;;;;;;;;5006330;28;20037;-70
2024/01/16 13:21:30;;;;;;;5.00;1.87;;;;;;;;;;5032762;28;20057;-71
2024/01/16 13:23:56;;;;;;;5.57;1.83;;;;;;;;;;5017553;28;20132;-72
2024/01/16 13:26:25;;;;;;;4.43;1.80;;;;;;;;;;5029355;28;20592;-71
2024/01/16 13:28:52;;;;;;;2.70;1.70;;;;;;;;;;5035482;28;20475;-72
2024/01/16 13:31:30;;;;;;;5.07;1.50;;;;;;;;;;5024435;28;20112;-75
2024/01/16 13:34:01;;;;;;;3.33;1.93;;;;;;;;;;5037058;28;20525;-73
2024/01/16 13:36:33;;;;;;;5.83;2.70;;;;;;;;;;5032279;28;20029;-71
2024/01/16 13:39:02;;;;;;;6.90;2.60;;;;;;;;;;5033226;28;20124;-72
2024/01/16 13:41:30;;;;;;;6.87;1.67;;;;;;;;;;5028135;28;20107;-71
2024/01/16 13:44:00;;;;;;;5.37;2.03;;;;;;;;;;5034074;28;20436;-72
2024/01/16 13:46:34;;;;;;;5.37;2.07;;;;;;;;;;5024820;28;20029;-70
2024/01/16 13:49:07;;;;;;;4.67;2.80;;;;;;;;;;5028529;28;20033;-74
2024/01/16 13:51:36;;;;;;;4.60;1.90;;;;;;;;;;5030011;28;20049;-74
2024/01/16 13:54:06;;;;;;;6.70;2.47;;;;;;;;;;5030658;28;20030;-70
2024/01/16 13:56:32;;;;;;;2.43;1.70;;;;;;;;;;5041323;28;20080;-72
2024/01/16 13:59:11;;;;;;;7.40;2.42;;;;;;;;;;5036435;28;20029;-73
2024/01/16 14:01:37;;;;;;;5.37;2.80;;;;;;;;;;5029532;28;20037;-71
2024/01/16 14:04:14;;;;;;;3.97;1.97;;;;;;;;;;5035041;28;20030;-75
2024/01/16 14:06:52;;;;;;;3.17;1.90;;;;;;;;;;5032954;28;20458;-73
2024/01/16 14:09:21;;;;;;;4.03;2.20;;;;;;;;;;5029478;28;20032;-72
2024/01/16 14:12:09;;;;;;;7.93;2.67;;;;;;;;;;5034120;28;20022;-71
2024/01/16 14:14:43;;;;;;;6.73;3.30;;;;;;;;;;5034137;28;20111;-72
2024/01/16 14:17:11;;;;;;;3.20;1.93;;;;;;;;;;5029661;28;20056;-73
2024/01/16 14:19:44;;;;;;;4.93;2.20;;;;;;;;;;5030735;28;20057;-72
2024/01/16 14:22:10;;;;;;;3.93;2.10;;;;;;;;;;5026076;28;20116;-73
2024/01/16 14:24:47;;;;;;;3.50;1.93;;;;;;;;;;5025439;28;20029;-73
2024/01/16 14:27:22;;;;;;;6.53;2.70;;;;;;;;;;5028940;28;20486;-71
2024/01/16 14:29:51;;;;;;;6.47;2.63;;;;;;;;;;5031258;28;20072;-74
2024/01/16 14:32:20;;;;;;;5.90;2.10;;;;;;;;;;5018446;28;20056;-73
2024/01/16 14:35:02;;;;;;;12.00;2.80;;;;;;;;;;5026933;28;20064;-74
2024/01/16 14:37:37;;;;;;;8.00;2.90;;;;;;;;;;5018994;28;20029;-72
2024/01/16 14:40:48;;;;;;;3.27;2.13;;;;;;;;;;5020026;28;20034;-71
2024/01/16 14:43:04;;;;;;;3.27;2.50;;;;;;;;;;5021609;28;20067;-73
2024/01/16 14:45:31;;;;;;;5.83;1.97;;;;;;;;;;5030766;28;20036;-69
2024/01/16 14:48:04;;;;;;;5.13;2.50;;;;;;;;;;5029329;28;20029;-71
2024/01/16 14:50:34;;;;;;;6.93;2.73;;;;;;;;;;5025258;28;20036;-72
2024/01/16 14:53:05;;;;;;;6.63;2.23;;;;;;;;;;5016557;28;20583;-73
2024/01/16 14:55:33;;;;;;;3.47;2.10;;;;;;;;;;5007426;28;20062;-72
2024/01/16 14:58:00;;;;;;;3.97;2.30;;;;;;;;;;5025877;28;20453;-75